createdAt,value
2022-10-17T00:00:35.940Z,6.27
2022-10-17T00:03:04.568Z,3.73
2022-10-17T00:05:34.360Z,3.77
2022-10-17T00:08:02.812Z,3.50
2022-10-17T00:10:31.298Z,4.30
2022-10-17T00:12:59.768Z,3.57
2022-10-17T00:15:28.243Z,4.40
2022-10-17T00:17:56.896Z,3.20
2022-10-17T00:20:25.328Z,3.43
2022-10-17T00:22:55.332Z,3.43
2022-10-17T00:25:23.828Z,3.40
2022-10-17T00:27:52.307Z,3.83
2022-10-17T00:30:20.763Z,5.00
2022-10-17T00:32:49.242Z,5.10
2022-10-17T00:35:17.689Z,5.63
2022-10-17T00:37:46.167Z,3.70
2022-10-17T00:40:16.057Z,4.57
2022-10-17T00:42:44.547Z,3.33
2022-10-17T00:45:18.426Z,3.13
2022-10-17T00:47:49.427Z,3.97
2022-10-17T00:50:18.464Z,4.83
2022-10-17T00:52:47.788Z,4.47
2022-10-17T00:55:19.407Z,3.87
2022-10-17T00:57:48.035Z,3.80
2022-10-17T01:00:17.091Z,4.10
2022-10-17T01:02:45.711Z,3.43
2022-10-17T01:05:14.476Z,4.23
2022-10-17T01:07:43.843Z,5.43
2022-10-17T01:10:12.870Z,4.10
2022-10-17T01:12:54.154Z,3.70
2022-10-17T01:15:27.594Z,3.40
2022-10-17T01:18:01.164Z,4.07
2022-10-17T01:20:59.959Z,6.30
2022-10-17T01:23:38.653Z,6.40
2022-10-17T01:26:09.655Z,4.43
2022-10-17T01:28:49.420Z,4.63
2022-10-17T01:31:22.387Z,3.90
2022-10-17T01:33:55.779Z,4.57
2022-10-17T01:36:32.707Z,3.70
2022-10-17T01:39:04.442Z,4.23
2022-10-17T01:41:37.429Z,5.80
2022-10-17T01:44:07.204Z,4.10
2022-10-17T01:46:39.058Z,3.63
2022-10-17T01:49:08.758Z,4.73
2022-10-17T01:51:39.748Z,4.00
2022-10-17T01:54:11.711Z,3.90
2022-10-17T01:56:40.739Z,3.83
2022-10-17T01:59:12.836Z,4.00
2022-10-17T02:01:43.587Z,4.00
2022-10-17T02:04:13.165Z,3.97
2022-10-17T02:06:41.625Z,4.27
2022-10-17T02:09:20.027Z,3.87
2022-10-17T02:11:52.479Z,4.20
2022-10-17T02:14:27.867Z,3.93
2022-10-17T02:17:06.635Z,3.70
2022-10-17T02:19:45.624Z,4.03
2022-10-17T02:22:18.356Z,4.47
2022-10-17T02:24:50.420Z,4.50
2022-10-17T02:27:22.791Z,4.73
2022-10-17T02:29:52.312Z,4.17
2022-10-17T02:32:26.629Z,3.63
2022-10-17T02:34:56.466Z,3.67
2022-10-17T02:37:27.534Z,3.83
2022-10-17T02:39:56.590Z,3.87
2022-10-17T02:42:25.546Z,4.80
2022-10-17T02:44:54.804Z,3.20
2022-10-17T02:47:27.353Z,3.23
2022-10-17T02:49:58.523Z,3.10
2022-10-17T02:52:30.640Z,3.80
2022-10-17T02:55:01.056Z,3.90
2022-10-17T02:57:31.054Z,3.00
2022-10-17T03:00:00.591Z,3.80
2022-10-17T03:02:30.606Z,3.67
2022-10-17T03:04:59.306Z,3.70
2022-10-17T03:07:27.775Z,4.57
2022-10-17T03:09:56.212Z,4.60
2022-10-17T03:12:24.698Z,4.83
2022-10-17T03:14:53.112Z,5.50
2022-10-17T03:17:21.580Z,7.23
2022-10-17T03:19:51.393Z,7.47
2022-10-17T03:22:19.892Z,8.60
2022-10-17T03:24:48.335Z,10.50
2022-10-17T03:27:16.851Z,9.97
2022-10-17T03:29:45.280Z,8.93
2022-10-17T03:32:13.764Z,8.97
2022-10-17T03:34:42.202Z,9.37
2022-10-17T03:37:12.036Z,9.33
2022-10-17T03:39:40.476Z,9.90
2022-10-17T03:42:08.984Z,8.57
2022-10-17T03:44:37.408Z,9.20
2022-10-17T03:47:08.165Z,8.67
2022-10-17T03:49:39.012Z,8.43
2022-10-17T03:52:07.492Z,9.77
2022-10-17T03:54:37.352Z,8.97
2022-10-17T03:57:06.006Z,9.43
2022-10-17T03:59:34.617Z,12.30
2022-10-17T04:02:03.073Z,8.80
2022-10-17T04:04:31.517Z,8.03
2022-10-17T04:06:59.997Z,8.67
2022-10-17T04:09:28.492Z,8.30
2022-10-17T04:11:58.349Z,9.37
2022-10-17T04:14:26.782Z,9.13
2022-10-17T04:16:55.331Z,8.03
2022-10-17T04:19:23.747Z,8.93
2022-10-17T04:21:52.222Z,10.83
2022-10-17T04:24:20.710Z,9.93
2022-10-17T04:26:52.141Z,9.63
2022-10-17T04:29:21.944Z,8.03
2022-10-17T04:31:52.382Z,8.10
2022-10-17T04:34:20.808Z,8.30
2022-10-17T04:36:49.306Z,7.17
2022-10-17T04:39:17.708Z,8.50
2022-10-17T04:41:46.469Z,8.10
2022-10-17T04:44:16.164Z,7.17
2022-10-17T04:46:46.024Z,9.03
2022-10-17T04:49:14.553Z,7.30
2022-10-17T04:51:43.152Z,7.53
2022-10-17T04:54:11.596Z,7.93
2022-10-17T04:56:40.102Z,7.20
2022-10-17T04:59:08.542Z,6.43
2022-10-17T05:01:37.137Z,6.50
2022-10-17T05:04:07.114Z,6.10
2022-10-17T05:06:37.795Z,7.60
2022-10-17T05:09:06.215Z,6.30
2022-10-17T05:11:34.963Z,5.93
2022-10-17T05:14:03.970Z,6.80
2022-10-17T05:16:32.438Z,5.90
2022-10-17T05:19:01.285Z,5.93
2022-10-17T05:24:07.516Z,8.43
2022-10-17T05:26:35.976Z,5.50
2022-10-17T05:29:05.494Z,6.13
2022-10-17T05:31:34.535Z,5.53
2022-10-17T05:34:03.392Z,4.83
2022-10-17T05:36:33.224Z,6.57
2022-10-17T05:39:01.701Z,8.30
2022-10-17T05:41:30.155Z,4.70
2022-10-17T05:44:01.767Z,5.33
2022-10-17T05:46:33.192Z,7.63
2022-10-17T05:49:01.680Z,5.97
2022-10-17T05:51:30.166Z,5.20
2022-10-17T05:54:00.091Z,6.43
2022-10-17T05:56:28.575Z,7.03
2022-10-17T05:59:00.728Z,4.93
2022-10-17T06:01:29.603Z,7.97
2022-10-17T06:03:58.195Z,5.27
2022-10-17T06:06:26.655Z,5.57
2022-10-17T06:08:55.153Z,5.73
2022-10-17T06:11:25.213Z,5.20
2022-10-17T06:13:54.133Z,6.13
2022-10-17T06:16:22.581Z,6.33
2022-10-17T06:18:51.049Z,5.53
2022-10-17T06:21:21.127Z,5.03
2022-10-17T06:23:50.116Z,6.80
2022-10-17T06:26:18.898Z,5.60
2022-10-17T06:28:48.848Z,6.10
2022-10-17T06:31:18.369Z,5.47
2022-10-17T06:33:46.828Z,4.93
2022-10-17T06:36:15.925Z,4.87
2022-10-17T06:38:44.415Z,4.80
2022-10-17T06:41:14.705Z,6.50
2022-10-17T06:43:46.260Z,5.23
2022-10-17T06:46:16.893Z,4.47
2022-10-17T06:48:45.624Z,4.40
2022-10-17T06:51:14.410Z,4.20
2022-10-17T06:53:43.075Z,5.37
2022-10-17T06:56:11.974Z,5.17
2022-10-17T06:58:40.980Z,5.03
2022-10-17T07:01:10.629Z,4.03
2022-10-17T07:03:41.013Z,5.30
2022-10-17T07:06:11.017Z,6.87
2022-10-17T07:08:39.516Z,3.77
2022-10-17T07:11:11.616Z,4.13
2022-10-17T07:13:40.171Z,3.80
2022-10-17T07:16:09.020Z,3.90
2022-10-17T07:18:37.488Z,4.78
2022-10-17T07:21:08.616Z,4.38
2022-10-17T07:23:37.679Z,4.07
2022-10-17T07:26:07.974Z,3.97
2022-10-17T07:28:36.593Z,5.10
2022-10-17T07:31:05.999Z,3.72
2022-10-17T07:33:34.537Z,5.15
2022-10-17T07:36:03.003Z,5.68
2022-10-17T07:38:33.079Z,4.50
2022-10-17T07:41:02.659Z,4.07
2022-10-17T07:43:31.192Z,5.15
2022-10-17T07:45:59.933Z,5.65
2022-10-17T07:48:28.394Z,5.80
2022-10-17T07:50:56.828Z,4.35
2022-10-17T07:53:25.309Z,3.30
2022-10-17T07:55:55.074Z,4.03
2022-10-17T07:58:23.595Z,3.97
2022-10-17T08:00:52.379Z,6.15
2022-10-17T08:03:20.886Z,3.35
2022-10-17T08:05:49.346Z,4.30
2022-10-17T08:08:17.867Z,5.22
2022-10-17T08:10:46.330Z,4.25
2022-10-17T08:13:16.191Z,5.65
2022-10-17T08:15:44.600Z,4.03
2022-10-17T08:18:13.898Z,3.60
2022-10-17T08:20:42.306Z,3.65
2022-10-17T08:23:10.772Z,3.88
2022-10-17T08:25:40.447Z,4.30
2022-10-17T08:28:09.206Z,3.63
2022-10-17T08:30:39.038Z,6.05
2022-10-17T08:33:07.507Z,4.88
2022-10-17T08:35:35.975Z,3.47
2022-10-17T08:38:04.497Z,6.15
2022-10-17T08:40:35.465Z,7.22
2022-10-17T08:43:21.999Z,3.65
2022-10-17T08:45:53.886Z,4.47
2022-10-17T08:48:23.399Z,5.75
2022-10-17T08:50:54.078Z,3.90
2022-10-17T08:53:25.038Z,4.90
2022-10-17T08:55:54.216Z,3.78
2022-10-17T08:58:24.151Z,5.15
2022-10-17T09:00:59.269Z,7.90
2022-10-17T09:03:38.811Z,5.10
2022-10-17T09:06:14.692Z,5.45
2022-10-17T09:08:48.685Z,6.78
2022-10-17T09:11:22.328Z,4.45
2022-10-17T09:13:57.693Z,5.32
2022-10-17T09:16:33.334Z,6.50
2022-10-17T09:19:03.897Z,7.05
2022-10-17T09:21:37.283Z,5.18
2022-10-17T09:24:15.856Z,5.90
2022-10-17T09:26:46.370Z,3.88
2022-10-17T09:29:18.315Z,6.75
2022-10-17T09:31:49.924Z,4.22
2022-10-17T09:34:18.700Z,9.05
2022-10-17T09:36:47.136Z,3.42
2022-10-17T09:39:16.539Z,5.50
2022-10-17T09:41:47.196Z,5.47
2022-10-17T09:44:17.298Z,6.78
2022-10-17T09:46:49.224Z,4.55
2022-10-17T09:49:20.471Z,4.18
2022-10-17T09:51:49.964Z,6.22
2022-10-17T09:54:22.623Z,4.82
2022-10-17T09:57:01.636Z,3.22
2022-10-17T09:59:33.956Z,3.47
2022-10-17T10:02:16.670Z,4.28
2022-10-17T10:05:10.558Z,5.13
2022-10-17T10:07:39.664Z,3.30
2022-10-17T10:10:09.292Z,3.28
2022-10-17T10:12:39.230Z,5.22
2022-10-17T10:15:22.548Z,5.88
2022-10-17T10:17:51.130Z,6.38
2022-10-17T10:20:34.434Z,6.70
2022-10-17T10:23:18.434Z,4.85
2022-10-17T10:25:57.793Z,4.05
2022-10-17T10:28:30.380Z,3.67
2022-10-17T10:30:59.902Z,4.55
2022-10-17T10:33:30.504Z,8.30
2022-10-17T10:36:03.329Z,2.72
2022-10-17T10:38:32.240Z,5.22
2022-10-17T10:41:04.073Z,4.03
2022-10-17T10:43:35.084Z,6.40
2022-10-17T10:46:04.302Z,3.35
2022-10-17T10:48:35.793Z,5.28
2022-10-17T10:51:07.598Z,4.68
2022-10-17T10:53:42.404Z,5.18
2022-10-17T10:56:12.736Z,5.97
2022-10-17T10:58:48.321Z,3.40
2022-10-17T11:01:19.342Z,5.78
2022-10-17T11:03:54.850Z,2.83
2022-10-17T11:06:28.138Z,3.40
2022-10-17T11:09:00.486Z,4.15
2022-10-17T11:11:31.462Z,3.90
2022-10-17T11:14:00.729Z,3.30
2022-10-17T11:16:31.386Z,4.07
2022-10-17T11:19:01.895Z,4.32
2022-10-17T11:21:36.234Z,3.88
2022-10-17T11:24:09.241Z,4.05
2022-10-17T11:26:42.147Z,3.95
2022-10-17T11:29:12.939Z,5.95
2022-10-17T11:31:44.630Z,4.60
2022-10-17T11:34:19.768Z,4.78
2022-10-17T11:36:50.883Z,5.35
2022-10-17T11:39:21.090Z,7.07
2022-10-17T11:41:52.602Z,5.82
2022-10-17T11:44:24.417Z,3.88
2022-10-17T11:46:56.216Z,5.30
2022-10-17T11:52:03.298Z,4.68
2022-10-17T11:54:34.629Z,6.00
2022-10-17T11:57:13.893Z,5.82
2022-10-17T11:59:50.577Z,4.20
2022-10-17T12:02:22.428Z,4.78
2022-10-17T12:04:55.960Z,3.85
2022-10-17T12:07:30.025Z,4.47
2022-10-17T12:10:01.889Z,5.60
2022-10-17T12:12:31.419Z,4.38
2022-10-17T12:15:15.289Z,5.00
2022-10-17T12:17:45.181Z,5.95
2022-10-17T12:20:27.637Z,4.68
2022-10-17T12:22:58.281Z,5.45
2022-10-17T12:25:30.127Z,6.13
2022-10-17T12:28:13.606Z,5.32
2022-10-17T12:30:51.867Z,5.50
2022-10-17T12:33:22.611Z,4.68
2022-10-17T12:36:06.214Z,8.10
2022-10-17T12:38:50.377Z,4.38
2022-10-17T12:41:19.488Z,5.10
2022-10-17T12:46:47.938Z,5.53
2022-10-17T12:49:53.086Z,6.78
2022-10-17T12:52:25.441Z,6.18
2022-10-17T12:55:10.913Z,4.40
2022-10-17T12:57:43.809Z,5.72
2022-10-17T13:00:17.123Z,4.50
2022-10-17T13:02:46.158Z,5.03
2022-10-17T13:05:17.809Z,6.88
2022-10-17T13:07:47.080Z,6.22
2022-10-17T13:13:06.895Z,6.03
2022-10-17T13:15:35.555Z,8.05
2022-10-17T13:18:04.368Z,7.28
2022-10-17T13:20:33.613Z,11.32
2022-10-17T13:23:02.713Z,5.75
2022-10-17T13:25:34.629Z,6.00
2022-10-17T13:28:07.527Z,7.95
2022-10-17T13:30:37.843Z,7.20
2022-10-17T13:33:17.989Z,6.47
2022-10-17T13:35:59.866Z,8.18
2022-10-17T13:38:30.432Z,8.32
2022-10-17T13:41:11.032Z,7.68
2022-10-17T13:43:49.087Z,6.18
2022-10-17T13:46:36.913Z,7.18
2022-10-17T13:49:12.563Z,9.73
2022-10-17T13:51:44.340Z,7.88
2022-10-17T13:54:35.140Z,5.82
2022-10-17T13:57:05.821Z,8.82
2022-10-17T13:59:39.198Z,6.00
2022-10-17T14:02:12.636Z,7.88
2022-10-17T14:05:11.832Z,5.53
2022-10-17T14:07:46.120Z,8.75
2022-10-17T14:10:23.134Z,5.75
2022-10-17T14:12:53.626Z,7.28
2022-10-17T14:15:23.780Z,6.78
2022-10-17T14:17:56.903Z,6.57
2022-10-17T14:21:07.826Z,8.15
2022-10-17T14:23:30.743Z,6.70
2022-10-17T14:26:06.876Z,5.80
2022-10-17T14:28:36.948Z,9.35
2022-10-17T14:31:14.173Z,6.70
2022-10-17T14:33:49.774Z,9.65
2022-10-17T14:36:20.011Z,7.13
2022-10-17T14:38:49.411Z,6.90
2022-10-17T14:41:41.925Z,5.93
2022-10-17T14:44:17.816Z,7.07
2022-10-17T14:46:50.507Z,8.68
2022-10-17T14:49:24.653Z,6.53
2022-10-17T14:52:24.370Z,7.00
2022-10-17T14:54:53.176Z,7.00
2022-10-17T14:57:24.899Z,9.07
2022-10-17T14:59:55.723Z,5.95
2022-10-17T15:02:24.771Z,7.80
2022-10-17T15:04:53.256Z,7.95
2022-10-17T15:07:22.286Z,9.32
2022-10-17T15:09:51.916Z,6.15
2022-10-17T15:12:22.014Z,7.60
2022-10-17T15:14:51.762Z,9.55
2022-10-17T15:17:22.616Z,7.22
2022-10-17T15:19:51.681Z,8.82
2022-10-17T15:22:20.367Z,9.48
2022-10-17T15:24:49.034Z,9.68
2022-10-17T15:27:18.644Z,7.55
2022-10-17T15:29:47.384Z,8.10
2022-10-17T15:32:16.021Z,8.88
2022-10-17T15:34:46.149Z,7.53
2022-10-17T15:37:19.249Z,8.18
2022-10-17T15:39:53.338Z,8.13
2022-10-17T15:42:22.651Z,7.25
2022-10-17T15:44:51.140Z,8.80
2022-10-17T15:47:26.035Z,10.25
2022-10-17T15:49:55.982Z,7.90
2022-10-17T15:52:24.681Z,9.88
2022-10-17T15:54:53.405Z,8.02
2022-10-17T15:57:23.959Z,9.25
2022-10-17T15:59:53.194Z,10.25
2022-10-17T16:02:22.518Z,9.10
2022-10-17T16:05:05.677Z,10.05
2022-10-17T16:07:35.496Z,10.60
2022-10-17T16:10:03.944Z,10.25
2022-10-17T16:12:38.019Z,8.85
2022-10-17T16:15:06.974Z,10.18
2022-10-17T16:17:35.526Z,10.63
2022-10-17T16:20:05.194Z,9.75
2022-10-17T16:22:36.887Z,10.30
2022-10-17T16:25:21.215Z,12.40
2022-10-17T16:27:50.564Z,10.55
2022-10-17T16:30:19.656Z,9.60
2022-10-17T16:32:49.738Z,10.50
2022-10-17T16:35:20.314Z,12.38
2022-10-17T16:37:50.821Z,10.23
2022-10-17T16:40:19.729Z,10.30
2022-10-17T16:42:48.242Z,10.90
2022-10-17T16:45:18.702Z,12.38
2022-10-17T16:47:47.464Z,10.55
2022-10-17T16:50:16.195Z,12.55
2022-10-17T16:52:44.928Z,11.35
2022-10-17T16:55:14.968Z,11.93
2022-10-17T17:00:24.188Z,10.10
2022-10-17T17:02:52.862Z,10.30
2022-10-17T17:05:21.332Z,10.73
2022-10-17T17:07:49.773Z,12.27
2022-10-17T17:10:19.745Z,8.80
2022-10-17T17:12:48.145Z,8.00
2022-10-17T17:15:16.607Z,9.70
2022-10-17T17:17:52.408Z,8.82
2022-10-17T17:20:23.269Z,10.90
2022-10-17T17:22:52.401Z,9.20
2022-10-17T17:25:23.506Z,10.13
2022-10-17T17:27:51.945Z,7.88
2022-10-17T17:30:20.563Z,7.20
2022-10-17T17:32:49.464Z,6.97
2022-10-17T17:35:18.092Z,6.20
2022-10-17T17:37:46.560Z,6.53
2022-10-17T17:40:15.896Z,8.40
2022-10-17T17:45:36.551Z,6.82
2022-10-17T17:48:05.240Z,7.57
2022-10-17T17:50:34.011Z,6.10
2022-10-17T17:53:02.455Z,7.38
2022-10-17T17:55:30.931Z,5.90
2022-10-17T17:58:00.984Z,7.28
2022-10-17T18:00:29.567Z,7.75
2022-10-17T18:02:57.991Z,6.70
2022-10-17T18:05:26.613Z,9.77
2022-10-17T18:07:55.139Z,10.77
2022-10-17T18:10:23.624Z,7.55
2022-10-17T18:12:52.245Z,6.07
2022-10-17T18:15:22.086Z,6.03
2022-10-17T18:17:50.546Z,7.43
2022-10-17T18:20:19.022Z,8.73
2022-10-17T18:22:47.423Z,8.15
2022-10-17T18:25:15.893Z,7.93
2022-10-17T18:27:44.336Z,6.97
2022-10-17T18:30:14.121Z,8.13
2022-10-17T18:32:43.924Z,7.35
2022-10-17T18:35:12.378Z,9.73
2022-10-17T18:40:10.814Z,10.15
2022-10-17T18:42:39.275Z,9.95
2022-10-17T18:45:08.388Z,10.32
2022-10-17T18:47:36.854Z,7.57
2022-10-17T18:50:06.999Z,7.78
2022-10-17T18:52:35.419Z,9.10
2022-10-17T18:55:03.965Z,8.60
2022-10-17T18:57:32.754Z,9.63
2022-10-17T19:00:01.358Z,7.80
2022-10-17T19:02:33.171Z,11.65
2022-10-17T19:05:04.572Z,9.98
2022-10-17T19:07:34.407Z,8.65
2022-10-17T19:10:03.114Z,7.53
2022-10-17T19:12:31.506Z,9.70
2022-10-17T19:14:59.991Z,9.52
2022-10-17T19:17:28.673Z,8.48
2022-10-17T19:19:57.336Z,8.38
2022-10-17T19:22:25.788Z,8.60
2022-10-17T19:24:55.656Z,7.85
2022-10-17T19:27:24.077Z,8.85
2022-10-17T19:29:52.525Z,9.75
2022-10-17T19:32:22.850Z,8.90
2022-10-17T19:34:51.531Z,9.48
2022-10-17T19:37:19.950Z,10.32
2022-10-17T19:39:50.560Z,11.02
2022-10-17T19:42:20.392Z,9.90
2022-10-17T19:44:48.904Z,10.15
2022-10-17T19:47:17.371Z,9.40
2022-10-17T19:49:49.913Z,9.27
2022-10-17T19:52:19.582Z,9.70
2022-10-17T19:54:48.210Z,9.90
2022-10-17T19:57:16.622Z,10.30
2022-10-17T19:59:46.566Z,10.88
2022-10-17T20:02:15.228Z,10.80
2022-10-17T20:04:54.393Z,12.25
2022-10-17T20:07:32.079Z,12.50
2022-10-17T20:10:00.604Z,11.70
2022-10-17T20:12:29.424Z,10.80
2022-10-17T20:14:59.505Z,10.27
2022-10-17T20:17:28.288Z,10.40
2022-10-17T20:19:56.751Z,10.35
2022-10-17T20:22:25.539Z,11.45
2022-10-17T20:24:54.036Z,13.10
2022-10-17T20:27:27.457Z,10.85
2022-10-17T20:30:01.635Z,12.13
2022-10-17T20:32:32.072Z,14.93
2022-10-17T20:35:00.768Z,13.88
2022-10-17T20:37:29.881Z,15.35
2022-10-17T20:40:22.691Z,14.80
2022-10-17T20:42:47.142Z,11.57
2022-10-17T20:45:15.599Z,12.48
2022-10-17T20:47:49.156Z,10.93
2022-10-17T20:50:20.168Z,11.35
2022-10-17T20:52:50.369Z,12.30
2022-10-17T20:55:21.292Z,12.32
2022-10-17T20:57:49.790Z,11.90
2022-10-17T21:00:18.306Z,11.07
2022-10-17T21:02:48.817Z,12.55
2022-10-17T21:05:17.453Z,12.43
2022-10-17T21:07:45.876Z,13.55
2022-10-17T21:10:34.428Z,12.73
2022-10-17T21:13:02.790Z,13.93
2022-10-17T21:15:31.352Z,13.35
2022-10-17T21:18:01.167Z,15.20
2022-10-17T21:20:29.658Z,12.13
2022-10-17T21:23:00.343Z,12.57
2022-10-17T21:25:28.990Z,14.32
2022-10-17T21:27:57.405Z,13.20
2022-10-17T21:30:25.856Z,14.82
2022-10-17T21:32:55.809Z,13.13
2022-10-17T21:35:25.820Z,12.93
2022-10-17T21:37:54.231Z,12.63
2022-10-17T21:40:22.685Z,12.73
2022-10-17T21:42:51.115Z,12.50
2022-10-17T21:45:25.853Z,12.88
2022-10-17T21:48:12.303Z,12.93
2022-10-17T21:50:42.888Z,13.05
2022-10-17T21:53:11.318Z,13.32
2022-10-17T21:55:39.905Z,13.98
2022-10-17T21:58:08.368Z,14.30
2022-10-17T22:00:36.829Z,12.68
2022-10-17T22:03:07.214Z,13.15
2022-10-17T22:05:35.651Z,14.77
2022-10-17T22:08:05.511Z,13.25
2022-10-17T22:10:33.968Z,12.85
2022-10-17T22:13:02.411Z,14.07
2022-10-17T22:15:31.381Z,13.77
2022-10-17T22:17:59.903Z,14.27
2022-10-17T22:20:28.428Z,14.30
2022-10-17T22:22:56.945Z,16.13
2022-10-17T22:25:26.926Z,14.73
2022-10-17T22:27:55.376Z,14.00
2022-10-17T22:30:23.806Z,13.18
2022-10-17T22:32:52.239Z,15.25
2022-10-17T22:35:21.763Z,14.40
2022-10-17T22:37:50.185Z,13.57
2022-10-17T22:40:18.720Z,14.52
2022-10-17T22:42:48.505Z,13.52
2022-10-17T22:45:17.107Z,13.38
2022-10-17T22:47:45.503Z,12.93
2022-10-17T22:50:13.955Z,13.70
2022-10-17T22:52:42.362Z,14.80
2022-10-17T22:55:11.182Z,15.35
2022-10-17T22:57:39.758Z,15.13
2022-10-17T23:00:11.508Z,14.68
2022-10-17T23:02:40.068Z,16.52
2022-10-17T23:05:08.913Z,17.77
2022-10-17T23:07:37.388Z,19.42
2022-10-17T23:10:06.026Z,16.90
2022-10-17T23:12:34.459Z,17.83
2022-10-17T23:15:02.932Z,17.60
2022-10-17T23:17:32.743Z,17.77
2022-10-17T23:20:01.165Z,19.08
2022-10-17T23:22:29.872Z,17.58
2022-10-17T23:24:58.666Z,18.75
2022-10-17T23:27:27.180Z,17.83
2022-10-17T23:29:55.790Z,19.17
2022-10-17T23:32:24.240Z,18.92
2022-10-17T23:34:54.090Z,17.00
2022-10-17T23:37:22.552Z,17.65
2022-10-17T23:39:50.993Z,18.50
2022-10-17T23:42:19.443Z,18.85
2022-10-17T23:44:47.904Z,17.70
2022-10-17T23:47:16.391Z,17.27
2022-10-17T23:49:44.882Z,19.02
2022-10-17T23:52:14.719Z,17.70
2022-10-17T23:54:43.187Z,17.48
2022-10-17T23:57:11.599Z,15.20
2022-10-17T23:59:40.102Z,15.30
